createdAt,value
2018-07-03T00:00:54.302Z,100470.84
2018-07-03T00:03:23.693Z,100473.91
2018-07-03T00:05:51.504Z,100464.52
2018-07-03T00:08:19.433Z,100460.92
2018-07-03T00:10:47.300Z,100464.23
2018-07-03T00:13:15.177Z,100468.94
2018-07-03T00:15:43.218Z,100461.48
2018-07-03T00:18:11.299Z,100462.32
2018-07-03T00:20:39.167Z,100462.57
2018-07-03T00:23:07.042Z,100466.44
2018-07-03T00:25:34.898Z,100467.25
2018-07-03T00:28:02.832Z,100462.84
2018-07-03T00:30:30.649Z,100461.20
2018-07-03T00:32:58.569Z,100461.19
2018-07-03T00:35:26.467Z,100461.17
2018-07-03T00:37:54.341Z,100458.71
2018-07-03T00:40:22.217Z,100458.14
2018-07-03T00:42:50.113Z,100454.83
2018-07-03T00:45:17.977Z,100448.47
2018-07-03T00:47:45.874Z,100447.94
2018-07-03T00:50:13.784Z,100450.97
2018-07-03T00:52:41.661Z,100449.30
2018-07-03T00:55:09.459Z,100449.81
2018-07-03T00:57:37.352Z,100449.52
2018-07-03T01:00:22.732Z,100456.67
2018-07-03T01:02:50.746Z,100451.18
2018-07-03T01:05:18.669Z,100458.88
2018-07-03T01:07:46.730Z,100462.42
2018-07-03T01:10:14.602Z,100465.45
2018-07-03T01:12:42.534Z,100461.59
2018-07-03T01:15:10.401Z,100456.08
2018-07-03T01:17:38.321Z,100458.84
2018-07-03T01:20:06.277Z,100468.22
2018-07-03T01:22:34.200Z,100458.80
2018-07-03T01:25:02.132Z,100462.62
2018-07-03T01:27:29.942Z,100457.05
2018-07-03T01:29:57.901Z,100452.67
2018-07-03T01:32:25.757Z,100458.55
2018-07-03T01:34:53.633Z,100459.62
2018-07-03T01:37:21.510Z,100465.84
2018-07-03T01:39:49.384Z,100468.35
2018-07-03T01:42:17.289Z,100474.89
2018-07-03T01:44:45.085Z,100468.04
2018-07-03T01:47:13.014Z,100469.11
2018-07-03T01:49:40.917Z,100473.55
2018-07-03T01:52:08.760Z,100474.58
2018-07-03T01:54:36.711Z,100467.73
2018-07-03T01:57:04.649Z,100476.73
2018-07-03T01:59:32.568Z,100475.36
2018-07-03T02:02:00.485Z,100472.80
2018-07-03T02:04:28.453Z,100477.25
2018-07-03T02:06:56.428Z,100478.63
2018-07-03T02:09:24.376Z,100468.31
2018-07-03T02:11:52.228Z,100468.73
2018-07-03T02:14:20.124Z,100460.92
2018-07-03T02:16:48.026Z,100459.87
2018-07-03T02:19:15.897Z,100459.88
2018-07-03T02:21:43.761Z,100469.50
2018-07-03T02:24:11.765Z,100464.50
2018-07-03T02:26:39.684Z,100459.71
2018-07-03T02:29:07.549Z,100463.28
2018-07-03T02:31:35.489Z,100461.41
2018-07-03T02:34:03.423Z,100453.39
2018-07-03T02:36:31.352Z,100450.86
2018-07-03T02:38:59.212Z,100451.07
2018-07-03T02:41:27.073Z,100461.24
2018-07-03T02:43:54.928Z,100460.91
2018-07-03T02:46:22.817Z,100468.05
2018-07-03T02:48:50.621Z,100463.60
2018-07-03T02:51:18.552Z,100462.02
2018-07-03T02:53:46.447Z,100460.30
2018-07-03T02:56:14.309Z,100464.28
2018-07-03T02:58:42.168Z,100462.34
2018-07-03T03:01:10.956Z,100466.66
2018-07-03T03:03:38.841Z,100473.42
2018-07-03T03:06:06.682Z,100468.26
2018-07-03T03:08:34.561Z,100472.56
2018-07-03T03:11:02.402Z,100468.92
2018-07-03T03:13:30.286Z,100472.16
2018-07-03T03:15:58.127Z,100475.52
2018-07-03T03:18:25.933Z,100473.79
2018-07-03T03:20:53.837Z,100463.34
2018-07-03T03:23:21.853Z,100467.38
2018-07-03T03:25:49.719Z,100466.64
2018-07-03T03:28:17.548Z,100464.34
2018-07-03T03:30:45.433Z,100470.94
2018-07-03T03:33:13.273Z,100474.98
2018-07-03T03:35:41.093Z,100472.49
2018-07-03T03:38:08.956Z,100475.73
2018-07-03T03:40:36.886Z,100478.55
2018-07-03T03:43:04.763Z,100487.16
2018-07-03T03:45:32.614Z,100493.48
2018-07-03T03:48:00.524Z,100493.12
2018-07-03T03:50:28.397Z,100489.67
2018-07-03T03:52:56.340Z,100495.33
2018-07-03T03:55:24.354Z,100495.77
2018-07-03T03:57:52.231Z,100491.92
2018-07-03T04:00:20.096Z,100492.91
2018-07-03T04:02:47.983Z,100500.89
2018-07-03T04:05:15.868Z,100494.00
2018-07-03T04:07:43.775Z,100503.27
2018-07-03T04:10:11.673Z,100506.47
2018-07-03T04:12:39.544Z,100508.77
2018-07-03T04:15:07.828Z,100505.82
2018-07-03T04:17:35.905Z,100513.86
2018-07-03T04:20:04.249Z,100515.27
2018-07-03T04:22:32.181Z,100504.00
2018-07-03T04:25:00.053Z,100507.91
2018-07-03T04:27:28.000Z,100506.39
2018-07-03T04:29:55.969Z,100504.39
2018-07-03T04:32:23.877Z,100511.89
2018-07-03T04:34:51.768Z,100507.91
2018-07-03T04:37:19.674Z,100514.80
2018-07-03T04:39:47.640Z,100515.13
2018-07-03T04:42:15.497Z,100518.77
2018-07-03T04:44:43.440Z,100520.38
2018-07-03T04:47:11.329Z,100526.55
2018-07-03T04:49:39.246Z,100527.44
2018-07-03T04:52:07.205Z,100520.73
2018-07-03T04:54:35.174Z,100520.52
2018-07-03T04:57:03.089Z,100522.26
2018-07-03T04:59:31.058Z,100523.59
2018-07-03T05:01:58.981Z,100521.48
2018-07-03T05:04:26.941Z,100523.59
2018-07-03T05:06:54.832Z,100520.84
2018-07-03T05:09:22.717Z,100513.77
2018-07-03T05:11:50.620Z,100521.98
2018-07-03T05:14:18.436Z,100511.44
2018-07-03T05:16:50.916Z,100510.45
2018-07-03T05:19:18.816Z,100501.68
2018-07-03T05:21:46.724Z,100501.20
2018-07-03T05:24:14.601Z,100507.78
2018-07-03T05:26:42.461Z,100506.91
2018-07-03T05:29:10.353Z,100512.64
2018-07-03T05:31:38.350Z,100519.27
2018-07-03T05:34:06.900Z,100514.14
2018-07-03T05:36:34.976Z,100517.47
2018-07-03T05:39:03.048Z,100511.30
2018-07-03T05:41:30.969Z,100510.94
2018-07-03T05:43:58.865Z,100504.09
2018-07-03T05:46:26.817Z,100507.09
2018-07-03T05:48:54.678Z,100507.34
2018-07-03T05:51:22.628Z,100511.97
2018-07-03T05:53:50.465Z,100513.33
2018-07-03T05:56:18.393Z,100523.48
2018-07-03T05:58:46.318Z,100520.92
2018-07-03T06:01:14.149Z,100532.52
2018-07-03T06:03:42.117Z,100527.76
2018-07-03T06:06:09.944Z,100533.98
2018-07-03T06:08:37.893Z,100530.12
2018-07-03T06:11:05.813Z,100537.05
2018-07-03T06:13:33.690Z,100533.28
2018-07-03T06:16:01.547Z,100527.26
2018-07-03T06:18:29.471Z,100532.59
2018-07-03T06:20:57.396Z,100528.64
2018-07-03T06:23:25.273Z,100524.39
2018-07-03T06:25:53.243Z,100521.66
2018-07-03T06:28:21.168Z,100532.26
2018-07-03T06:30:49.168Z,100525.45
2018-07-03T06:33:17.070Z,100530.77
2018-07-03T06:35:44.874Z,100527.22
2018-07-03T06:38:12.837Z,100532.59
2018-07-03T06:40:40.677Z,100528.23
2018-07-03T06:43:08.541Z,100529.08
2018-07-03T06:45:36.499Z,100528.81
2018-07-03T06:48:04.470Z,100523.34
2018-07-03T06:50:32.393Z,100528.68
2018-07-03T06:53:00.261Z,100535.98
2018-07-03T06:55:28.174Z,100531.59
2018-07-03T06:57:56.195Z,100532.47
2018-07-03T07:00:24.014Z,100527.09
2018-07-03T07:02:51.897Z,100533.99
2018-07-03T07:05:19.800Z,100532.41
2018-07-03T07:07:47.637Z,100532.41
2018-07-03T07:10:15.498Z,100529.78
2018-07-03T07:12:43.381Z,100527.63
2018-07-03T07:15:11.289Z,100525.65
2018-07-03T07:17:39.221Z,100532.72
2018-07-03T07:20:07.208Z,100526.11
2018-07-03T07:22:35.268Z,100532.52
2018-07-03T07:25:03.156Z,100531.08
2018-07-03T07:27:31.093Z,100526.41
2018-07-03T07:29:58.905Z,100530.07
2018-07-03T07:32:26.836Z,100523.75
2018-07-03T07:34:54.841Z,100527.19
2018-07-03T07:37:22.744Z,100529.31
2018-07-03T07:39:50.648Z,100526.11
2018-07-03T07:42:18.601Z,100526.84
2018-07-03T07:44:46.426Z,100528.75
2018-07-03T07:47:14.294Z,100531.91
2018-07-03T07:49:42.656Z,100523.64
2018-07-03T07:52:10.220Z,100524.81
2018-07-03T07:54:38.139Z,100516.66
2018-07-03T07:57:06.026Z,100520.95
2018-07-03T07:59:33.878Z,100524.15
2018-07-03T08:02:01.820Z,100521.27
2018-07-03T08:04:29.664Z,100528.80
2018-07-03T08:06:57.603Z,100526.67
2018-07-03T08:09:25.471Z,100523.44
2018-07-03T08:11:53.368Z,100520.50
2018-07-03T08:14:21.281Z,100516.07
2018-07-03T08:16:49.115Z,100525.02
2018-07-03T08:19:17.027Z,100514.19
2018-07-03T08:21:44.825Z,100521.08
2018-07-03T08:24:12.676Z,100521.17
2018-07-03T08:26:40.599Z,100524.13
2018-07-03T08:29:08.492Z,100522.09
2018-07-03T08:31:36.322Z,100521.48
2018-07-03T08:34:04.248Z,100520.90
2018-07-03T08:36:32.077Z,100521.60
2018-07-03T08:38:59.913Z,100515.98
2018-07-03T08:41:27.836Z,100515.68
2018-07-03T08:43:55.736Z,100517.80
2018-07-03T08:46:23.584Z,100525.22
2018-07-03T08:48:51.409Z,100520.69
2018-07-03T08:51:19.316Z,100521.17
2018-07-03T08:53:47.101Z,100521.02
2018-07-03T08:56:14.900Z,100518.05
2018-07-03T08:58:42.765Z,100518.71
2018-07-03T09:01:10.672Z,100514.38
2018-07-03T09:03:38.547Z,100518.66
2018-07-03T09:06:06.536Z,100523.81
2018-07-03T09:08:34.373Z,100525.54
2018-07-03T09:11:02.322Z,100521.77
2018-07-03T09:13:30.158Z,100519.88
2018-07-03T09:15:58.061Z,100521.02
2018-07-03T09:18:25.961Z,100524.98
2018-07-03T09:20:53.817Z,100519.63
2018-07-03T09:23:21.725Z,100516.32
2018-07-03T09:25:49.681Z,100512.96
2018-07-03T09:28:17.541Z,100512.06
2018-07-03T09:30:45.436Z,100508.66
2018-07-03T09:33:13.258Z,100502.56
2018-07-03T09:35:41.079Z,100500.75
2018-07-03T09:38:08.959Z,100499.49
2018-07-03T09:40:37.537Z,100499.39
2018-07-03T09:43:05.605Z,100500.17
2018-07-03T09:45:33.457Z,100497.00
2018-07-03T09:48:01.326Z,100498.40
2018-07-03T09:50:29.189Z,100499.77
2018-07-03T09:52:57.157Z,100493.38
2018-07-03T09:55:25.023Z,100483.47
2018-07-03T09:57:53.242Z,100485.38
2018-07-03T10:00:26.806Z,100487.18
2018-07-03T10:02:55.249Z,100492.17
2018-07-03T10:05:23.137Z,100480.94
2018-07-03T10:07:50.981Z,100482.20
2018-07-03T10:10:18.876Z,100480.98
2018-07-03T10:12:46.812Z,100480.48
2018-07-03T10:15:14.746Z,100484.69
2018-07-03T10:17:42.597Z,100480.89
2018-07-03T10:20:10.464Z,100477.79
2018-07-03T10:22:38.377Z,100474.73
2018-07-03T10:25:06.300Z,100483.44
2018-07-03T10:27:34.254Z,100476.73
2018-07-03T10:30:02.112Z,100483.23
2018-07-03T10:32:30.074Z,100478.17
2018-07-03T10:34:58.036Z,100472.05
2018-07-03T10:37:25.935Z,100466.80
2018-07-03T10:39:53.913Z,100468.37
2018-07-03T10:42:21.901Z,100467.95
2018-07-03T10:44:49.753Z,100466.87
2018-07-03T10:47:17.666Z,100461.64
2018-07-03T10:49:45.592Z,100462.55
2018-07-03T10:52:13.461Z,100460.13
2018-07-03T10:54:41.473Z,100448.84
2018-07-03T10:57:09.608Z,100451.80
2018-07-03T10:59:37.570Z,100453.25
2018-07-03T11:02:05.880Z,100451.47
2018-07-03T11:04:33.705Z,100449.73
2018-07-03T11:07:01.609Z,100448.42
2018-07-03T11:09:29.457Z,100447.02
2018-07-03T11:11:57.292Z,100443.30
2018-07-03T11:14:25.168Z,100449.69
2018-07-03T11:16:53.046Z,100442.00
2018-07-03T11:19:20.897Z,100441.75
2018-07-03T11:21:48.788Z,100443.66
2018-07-03T11:24:17.055Z,100440.61
2018-07-03T11:26:44.939Z,100432.09
2018-07-03T11:29:12.780Z,100429.59
2018-07-03T11:31:40.632Z,100433.83
2018-07-03T11:34:08.501Z,100428.20
2018-07-03T11:36:36.376Z,100427.65
2018-07-03T11:39:07.043Z,100423.26
2018-07-03T11:41:35.114Z,100425.38
2018-07-03T11:44:03.044Z,100426.59
2018-07-03T11:46:30.965Z,100419.30
2018-07-03T11:48:58.869Z,100417.57
2018-07-03T11:51:26.725Z,100410.44
2018-07-03T11:53:54.547Z,100410.88
2018-07-03T11:56:22.528Z,100409.45
2018-07-03T11:58:50.477Z,100416.70
2018-07-03T12:01:18.507Z,100410.92
2018-07-03T12:03:46.276Z,100407.50
2018-07-03T12:06:14.341Z,100404.97
2018-07-03T12:08:42.314Z,100400.67
2018-07-03T12:11:10.435Z,100404.90
2018-07-03T12:13:38.360Z,100401.47
2018-07-03T12:16:06.245Z,100400.81
2018-07-03T12:18:39.768Z,100390.64
2018-07-03T12:21:07.636Z,100393.04
2018-07-03T12:23:35.657Z,100390.44
2018-07-03T12:26:03.554Z,100389.58
2018-07-03T12:28:31.587Z,100388.09
2018-07-03T12:30:59.420Z,100385.17
2018-07-03T12:33:27.278Z,100376.68
2018-07-03T12:35:55.125Z,100380.72
2018-07-03T12:38:23.064Z,100384.41
2018-07-03T12:40:50.996Z,100374.91
2018-07-03T12:43:18.909Z,100373.91
2018-07-03T12:45:46.893Z,100369.98
2018-07-03T12:48:14.732Z,100364.71
2018-07-03T12:50:42.644Z,100367.81
2018-07-03T12:53:10.600Z,100367.73
2018-07-03T12:55:38.494Z,100366.16
2018-07-03T12:58:06.356Z,100360.47
2018-07-03T13:00:34.386Z,100362.42
2018-07-03T13:03:02.281Z,100361.93
2018-07-03T13:05:30.178Z,100350.98
2018-07-03T13:07:58.031Z,100358.33
2018-07-03T13:10:25.917Z,100358.50
2018-07-03T13:12:53.833Z,100354.73
2018-07-03T13:15:21.704Z,100350.55
2018-07-03T13:17:49.620Z,100353.56
2018-07-03T13:20:17.477Z,100353.25
2018-07-03T13:22:45.353Z,100345.09
2018-07-03T13:25:13.373Z,100345.94
2018-07-03T13:27:42.525Z,100345.13
2018-07-03T13:30:10.700Z,100337.73
2018-07-03T13:32:38.572Z,100339.64
2018-07-03T13:35:07.943Z,100337.09
2018-07-03T13:37:36.108Z,100342.60
2018-07-03T13:40:05.493Z,100344.63
2018-07-03T13:42:33.365Z,100336.88
2018-07-03T13:45:01.249Z,100329.48
2018-07-03T13:47:29.097Z,100335.58
2018-07-03T13:49:57.050Z,100330.16
2018-07-03T13:52:25.333Z,100326.27
2018-07-03T13:54:53.290Z,100332.92
2018-07-03T13:57:21.237Z,100327.89
2018-07-03T13:59:49.113Z,100327.52
2018-07-03T14:02:17.067Z,100326.11
2018-07-03T14:04:44.918Z,100314.28
2018-07-03T14:07:13.069Z,100319.08
2018-07-03T14:09:40.994Z,100320.59
2018-07-03T14:12:08.877Z,100309.02
2018-07-03T14:14:36.952Z,100306.97
2018-07-03T14:17:04.748Z,100305.55
2018-07-03T14:19:36.832Z,100309.23
2018-07-03T14:22:04.941Z,100303.58
2018-07-03T14:24:32.817Z,100295.06
2018-07-03T14:27:00.714Z,100299.53
2018-07-03T14:29:30.600Z,100305.78
2018-07-03T14:31:58.435Z,100302.73
2018-07-03T14:34:26.380Z,100304.50
2018-07-03T14:36:56.193Z,100304.67
2018-07-03T14:39:25.905Z,100308.46
2018-07-03T14:41:53.896Z,100303.97
2018-07-03T14:44:21.855Z,100303.33
2018-07-03T14:46:49.980Z,100303.83
2018-07-03T14:49:17.936Z,100295.33
2018-07-03T14:51:45.949Z,100302.66
2018-07-03T14:54:13.800Z,100298.77
2018-07-03T14:56:41.716Z,100298.77
2018-07-03T14:59:09.721Z,100297.11
2018-07-03T15:01:38.177Z,100297.00
2018-07-03T15:04:06.037Z,100296.39
2018-07-03T15:06:34.973Z,100286.47
2018-07-03T15:09:05.604Z,100291.19
2018-07-03T15:11:34.245Z,100295.11
2018-07-03T15:14:03.225Z,100293.69
2018-07-03T15:16:31.514Z,100282.62
2018-07-03T15:19:04.928Z,100282.84
2018-07-03T15:21:32.753Z,100287.72
2018-07-03T15:24:00.613Z,100285.14
2018-07-03T15:26:28.515Z,100284.36
2018-07-03T15:28:56.289Z,100273.88
2018-07-03T15:31:24.132Z,100276.58
2018-07-03T15:33:52.488Z,100285.02
2018-07-03T15:36:20.728Z,100269.39
2018-07-03T15:38:48.607Z,100272.27
2018-07-03T15:41:16.676Z,100268.58
2018-07-03T15:44:01.980Z,100273.55
2018-07-03T15:46:29.863Z,100269.65
2018-07-03T15:48:57.742Z,100271.69
2018-07-03T15:51:25.652Z,100269.06
2018-07-03T15:53:54.576Z,100257.55
2018-07-03T15:56:22.557Z,100256.11
2018-07-03T15:58:50.444Z,100250.40
2018-07-03T16:01:19.219Z,100252.94
2018-07-03T16:05:03.509Z,100254.09
2018-07-03T16:08:50.652Z,100248.92
2018-07-03T16:11:18.595Z,100245.83
2018-07-03T16:13:46.426Z,100249.73
2018-07-03T16:16:15.093Z,100244.08
2018-07-03T16:18:42.989Z,100234.26
2018-07-03T16:21:10.857Z,100238.95
2018-07-03T16:23:38.734Z,100246.70
2018-07-03T16:26:06.697Z,100249.35
2018-07-03T16:28:34.646Z,100250.47
2018-07-03T16:31:02.556Z,100257.23
2018-07-03T16:33:30.573Z,100254.22
2018-07-03T16:35:58.434Z,100249.53
2018-07-03T16:38:26.349Z,100248.99
2018-07-03T16:40:54.289Z,100250.83
2018-07-03T16:43:22.158Z,100241.92
2018-07-03T16:45:50.016Z,100243.95
2018-07-03T16:48:18.034Z,100246.09
2018-07-03T16:50:47.897Z,100241.76
2018-07-03T16:53:24.221Z,100244.08
2018-07-03T16:55:52.065Z,100238.39
2018-07-03T16:58:19.944Z,100240.44
2018-07-03T17:00:47.815Z,100232.53
2018-07-03T17:03:15.781Z,100231.22
2018-07-03T17:05:43.715Z,100240.67
2018-07-03T17:08:11.673Z,100234.57
2018-07-03T17:10:39.625Z,100236.52
2018-07-03T17:13:07.572Z,100235.48
2018-07-03T17:15:35.477Z,100229.00
2018-07-03T17:18:03.365Z,100235.42
2018-07-03T17:20:31.179Z,100238.11
2018-07-03T17:22:59.049Z,100237.68
2018-07-03T17:25:26.936Z,100237.90
2018-07-03T17:27:54.786Z,100234.37
2018-07-03T17:30:22.841Z,100234.08
2018-07-03T17:32:50.747Z,100230.95
2018-07-03T17:35:18.690Z,100228.72
2018-07-03T17:37:46.630Z,100234.45
2018-07-03T17:40:31.877Z,100229.05
2018-07-03T17:44:26.457Z,100230.98
2018-07-03T17:46:54.385Z,100232.14
2018-07-03T17:49:22.272Z,100227.38
2018-07-03T17:51:50.153Z,100225.53
2018-07-03T17:54:18.178Z,100230.40
2018-07-03T17:56:46.070Z,100229.09
2018-07-03T17:59:13.976Z,100222.60
2018-07-03T18:01:41.911Z,100224.15
2018-07-03T18:04:13.290Z,100233.06
2018-07-03T18:06:41.187Z,100229.23
2018-07-03T18:09:11.141Z,100225.78
2018-07-03T18:11:39.080Z,100223.94
2018-07-03T18:14:07.152Z,100230.11
2018-07-03T18:16:34.997Z,100236.82
2018-07-03T18:19:08.772Z,100239.15
2018-07-03T18:21:36.684Z,100246.84
2018-07-03T18:24:05.103Z,100244.95
2018-07-03T18:26:33.376Z,100254.30
2018-07-03T18:29:01.378Z,100241.31
2018-07-03T18:31:29.297Z,100241.71
2018-07-03T18:33:57.250Z,100246.86
2018-07-03T18:36:25.093Z,100251.59
2018-07-03T18:38:52.957Z,100251.30
2018-07-03T18:41:20.876Z,100248.89
2018-07-03T18:43:48.749Z,100253.55
2018-07-03T18:46:16.664Z,100248.53
2018-07-03T18:48:44.605Z,100248.08
2018-07-03T18:51:12.526Z,100251.03
2018-07-03T18:53:40.404Z,100251.73
2018-07-03T18:56:08.271Z,100249.20
2018-07-03T18:58:36.217Z,100245.81
2018-07-03T19:01:04.240Z,100253.06
2018-07-03T19:03:32.200Z,100249.99
2018-07-03T19:06:00.095Z,100251.75
2018-07-03T19:08:27.908Z,100250.47
2018-07-03T19:10:55.789Z,100245.19
2018-07-03T19:13:23.717Z,100251.59
2018-07-03T19:15:51.568Z,100250.25
2018-07-03T19:18:19.475Z,100246.22
2018-07-03T19:20:47.566Z,100247.78
2018-07-03T19:23:15.521Z,100251.55
2018-07-03T19:25:43.465Z,100251.89
2018-07-03T19:28:11.342Z,100257.61
2018-07-03T19:30:39.239Z,100256.42
2018-07-03T19:33:07.150Z,100259.65
2018-07-03T19:35:34.942Z,100263.92
2018-07-03T19:38:03.125Z,100262.11
2018-07-03T19:40:30.916Z,100262.11
2018-07-03T19:43:32.538Z,100266.22
2018-07-03T19:46:01.121Z,100275.01
2018-07-03T19:48:28.957Z,100271.54
2018-07-03T19:50:56.940Z,100274.10
2018-07-03T19:53:24.768Z,100275.39
2018-07-03T19:55:53.903Z,100275.16
2018-07-03T19:58:22.060Z,100272.30
2018-07-03T20:00:51.013Z,100263.52
2018-07-03T20:03:18.961Z,100273.45
2018-07-03T20:05:46.829Z,100273.61
2018-07-03T20:08:14.757Z,100273.55
2018-07-03T20:10:42.730Z,100280.11
2018-07-03T20:13:12.822Z,100274.45
2018-07-03T20:15:40.694Z,100272.48
2018-07-03T20:18:10.170Z,100269.02
2018-07-03T20:20:38.341Z,100274.85
2018-07-03T20:23:06.314Z,100276.34
2018-07-03T20:25:35.049Z,100268.97
2018-07-03T20:28:02.969Z,100268.81
2018-07-03T20:30:30.904Z,100276.74
2018-07-03T20:32:58.985Z,100275.19
2018-07-03T20:35:27.021Z,100267.73
2018-07-03T20:38:03.120Z,100269.73
2018-07-03T20:41:03.161Z,100273.39
2018-07-03T20:43:32.511Z,100272.42
2018-07-03T20:46:00.445Z,100273.85
2018-07-03T20:48:28.465Z,100263.89
2018-07-03T20:50:57.141Z,100272.41
2018-07-03T20:53:25.097Z,100268.33
2018-07-03T20:55:53.007Z,100278.00
2018-07-03T20:58:21.216Z,100268.28
2018-07-03T21:00:49.061Z,100272.41
2018-07-03T21:03:16.985Z,100271.27
2018-07-03T21:05:44.819Z,100269.66
2018-07-03T21:08:12.718Z,100267.91
2018-07-03T21:10:40.677Z,100274.08
2018-07-03T21:13:08.599Z,100280.59
2018-07-03T21:15:36.429Z,100278.11
2018-07-03T21:18:04.327Z,100272.20
2018-07-03T21:20:32.251Z,100267.44
2018-07-03T21:23:00.264Z,100266.16
2018-07-03T21:25:28.169Z,100269.39
2018-07-03T21:27:56.044Z,100263.35
2018-07-03T21:30:23.970Z,100268.23
2018-07-03T21:32:51.837Z,100266.47
2018-07-03T21:35:20.473Z,100261.02
2018-07-03T21:37:48.567Z,100261.16
2018-07-03T21:40:16.454Z,100260.58
2018-07-03T21:42:44.308Z,100263.53
2018-07-03T21:45:12.089Z,100267.34
2018-07-03T21:47:39.881Z,100260.05
2018-07-03T21:50:07.789Z,100260.91
2018-07-03T21:52:35.645Z,100263.12
2018-07-03T21:55:03.589Z,100273.56
2018-07-03T21:57:31.501Z,100274.44
2018-07-03T21:59:59.424Z,100273.55
2018-07-03T22:02:27.290Z,100276.59
2018-07-03T22:04:55.125Z,100281.63
2018-07-03T22:07:23.064Z,100278.55
2018-07-03T22:09:51.009Z,100277.61
2018-07-03T22:12:18.876Z,100284.86
2018-07-03T22:14:46.754Z,100282.12
2018-07-03T22:17:14.601Z,100284.97
2018-07-03T22:19:42.530Z,100285.77
2018-07-03T22:22:10.465Z,100290.02
2018-07-03T22:24:38.256Z,100292.45
2018-07-03T22:27:06.100Z,100293.98
2018-07-03T22:29:33.907Z,100295.28
2018-07-03T22:32:11.179Z,100302.79
2018-07-03T22:34:40.097Z,100302.04
2018-07-03T22:37:07.991Z,100303.11
2018-07-03T22:39:39.818Z,100302.34
2018-07-03T22:42:12.418Z,100303.56
2018-07-03T22:44:40.782Z,100312.88
2018-07-03T22:47:08.789Z,100308.33
2018-07-03T22:49:36.595Z,100307.39
2018-07-03T22:52:04.757Z,100310.05
2018-07-03T22:54:32.641Z,100310.66
2018-07-03T22:57:00.589Z,100325.66
2018-07-03T22:59:28.448Z,100320.05
2018-07-03T23:01:56.286Z,100324.09
2018-07-03T23:04:24.221Z,100318.81
2018-07-03T23:06:52.243Z,100322.79
2018-07-03T23:09:20.174Z,100323.87
2018-07-03T23:11:48.034Z,100322.23
2018-07-03T23:14:15.932Z,100324.47
2018-07-03T23:16:43.836Z,100321.83
2018-07-03T23:19:11.756Z,100323.62
2018-07-03T23:21:39.679Z,100319.97
2018-07-03T23:24:07.577Z,100324.49
2018-07-03T23:26:35.439Z,100327.63
2018-07-03T23:29:03.281Z,100328.33
2018-07-03T23:31:31.146Z,100326.61
2018-07-03T23:33:59.043Z,100333.33
2018-07-03T23:36:26.941Z,100329.75
2018-07-03T23:38:54.897Z,100330.67
2018-07-03T23:41:22.809Z,100333.08
2018-07-03T23:43:51.223Z,100330.42
2018-07-03T23:46:36.417Z,100336.78
2018-07-03T23:49:21.508Z,100329.64
2018-07-03T23:52:06.604Z,100320.82
2018-07-03T23:54:51.632Z,100328.97
2018-07-03T23:57:36.817Z,100320.47
